createdAt,value
2023-09-24T00:00:23.020Z,78.23
2023-09-24T00:01:22.883Z,77.98
2023-09-24T00:02:22.839Z,78.23
2023-09-24T00:03:22.919Z,78.09
2023-09-24T00:04:22.821Z,79.00
2023-09-24T00:05:22.807Z,79.21
2023-09-24T00:06:22.766Z,78.66
2023-09-24T00:07:22.762Z,78.70
2023-09-24T00:08:22.788Z,78.66
2023-09-24T00:09:22.725Z,78.77
2023-09-24T00:10:22.710Z,78.56
2023-09-24T00:11:22.748Z,78.77
2023-09-24T00:12:22.680Z,78.77
2023-09-24T00:13:22.671Z,78.83
2023-09-24T00:14:22.700Z,78.83
2023-09-24T00:15:22.696Z,79.14
2023-09-24T00:16:22.646Z,79.14
2023-09-24T00:17:22.632Z,78.63
2023-09-24T00:18:22.708Z,78.73
2023-09-24T00:19:22.580Z,78.73
2023-09-24T00:20:22.584Z,79.41
2023-09-24T00:21:22.550Z,79.14
2023-09-24T00:22:24.360Z,79.20
2023-09-24T00:23:22.531Z,78.42
2023-09-24T00:24:22.506Z,78.28
2023-09-24T00:25:22.498Z,77.98
2023-09-24T00:26:22.509Z,77.98
2023-09-24T00:27:22.475Z,77.57
2023-09-24T00:28:22.448Z,77.98
2023-09-24T00:29:22.470Z,77.67
2023-09-24T00:30:22.417Z,77.67
2023-09-24T00:31:22.432Z,77.37
2023-09-24T00:32:22.408Z,78.28
2023-09-24T00:33:22.449Z,78.08
2023-09-24T00:34:22.362Z,78.12
2023-09-24T00:35:22.369Z,77.98
2023-09-24T00:36:22.344Z,77.98
2023-09-24T00:37:22.322Z,77.51
2023-09-24T00:38:22.324Z,77.37
2023-09-24T00:39:22.290Z,77.40
2023-09-24T00:40:22.315Z,77.51
2023-09-24T00:41:22.272Z,77.61
2023-09-24T00:42:22.247Z,77.20
2023-09-24T00:43:22.236Z,77.30
2023-09-24T00:44:22.237Z,77.61
2023-09-24T00:45:22.206Z,77.40
2023-09-24T00:46:22.221Z,76.93
2023-09-24T00:47:22.276Z,77.03
2023-09-24T00:48:22.241Z,77.03
2023-09-24T00:49:22.148Z,77.03
2023-09-24T00:50:22.188Z,77.64
2023-09-24T00:51:22.118Z,77.14
2023-09-24T00:52:22.107Z,77.27
2023-09-24T00:53:22.109Z,77.03
2023-09-24T00:54:22.079Z,77.58
2023-09-24T00:55:22.061Z,77.17
2023-09-24T00:56:22.071Z,77.31
2023-09-24T00:57:22.032Z,77.37
2023-09-24T00:58:22.016Z,77.00
2023-09-24T00:59:22.042Z,77.21
2023-09-24T01:00:21.992Z,76.90
2023-09-24T01:01:22.049Z,77.00
2023-09-24T01:02:22.013Z,76.90
2023-09-24T01:03:22.079Z,76.84
2023-09-24T01:04:22.001Z,76.93
2023-09-24T01:05:21.935Z,77.04
2023-09-24T01:06:21.921Z,76.84
2023-09-24T01:07:21.890Z,77.25
2023-09-24T01:08:21.904Z,77.08
2023-09-24T01:09:21.874Z,76.84
2023-09-24T01:10:21.848Z,76.77
2023-09-24T01:11:21.886Z,76.97
2023-09-24T01:12:21.823Z,77.08
2023-09-24T01:13:21.806Z,77.08
2023-09-24T01:14:21.978Z,76.77
2023-09-24T01:15:21.776Z,76.67
2023-09-24T01:16:21.828Z,76.67
2023-09-24T01:17:21.892Z,76.81
2023-09-24T01:18:21.851Z,76.40
2023-09-24T01:19:21.720Z,76.40
2023-09-24T01:20:21.827Z,76.60
2023-09-24T01:21:21.755Z,75.99
2023-09-24T01:22:21.678Z,76.74
2023-09-24T01:23:21.675Z,76.23
2023-09-24T01:24:21.651Z,76.84
2023-09-24T01:25:21.712Z,76.64
2023-09-24T01:26:21.717Z,76.84
2023-09-24T01:27:21.600Z,76.74
2023-09-24T01:28:21.592Z,76.88
2023-09-24T01:29:21.594Z,76.57
2023-09-24T01:30:21.561Z,76.67
2023-09-24T01:31:21.542Z,76.88
2023-09-24T01:32:21.559Z,76.78
2023-09-24T01:33:21.753Z,76.88
2023-09-24T01:34:21.582Z,76.88
2023-09-24T01:35:21.506Z,76.98
2023-09-24T01:36:21.469Z,77.39
2023-09-24T01:37:21.456Z,77.39
2023-09-24T01:38:21.469Z,77.29
2023-09-24T01:39:21.437Z,77.08
2023-09-24T01:40:21.421Z,77.19
2023-09-24T01:41:21.437Z,77.08
2023-09-24T01:42:21.382Z,76.91
2023-09-24T01:43:21.370Z,76.71
2023-09-24T01:44:21.372Z,76.50
2023-09-24T01:45:21.363Z,76.20
2023-09-24T01:46:21.349Z,76.09
2023-09-24T01:47:21.347Z,76.09
2023-09-24T01:48:21.376Z,76.03
2023-09-24T01:49:21.280Z,75.96
2023-09-24T01:50:21.282Z,75.96
2023-09-24T01:51:21.252Z,76.06
2023-09-24T01:52:21.236Z,76.20
2023-09-24T01:53:21.279Z,76.17
2023-09-24T01:54:21.205Z,76.20
2023-09-24T01:55:21.194Z,76.40
2023-09-24T01:56:21.248Z,76.72
2023-09-24T01:57:21.163Z,76.61
2023-09-24T01:58:21.150Z,76.61
2023-09-24T01:59:21.166Z,76.72
2023-09-24T02:00:21.115Z,76.72
2023-09-24T02:01:21.131Z,76.54
2023-09-24T02:02:21.168Z,76.75
2023-09-24T02:03:21.106Z,76.61
2023-09-24T02:04:21.058Z,76.65
2023-09-24T02:05:21.043Z,76.34
2023-09-24T02:06:21.023Z,76.65
2023-09-24T02:07:21.018Z,76.65
2023-09-24T02:08:20.996Z,76.65
2023-09-24T02:09:20.984Z,76.68
2023-09-24T02:10:20.963Z,76.17
2023-09-24T02:11:20.951Z,76.17
2023-09-24T02:12:20.937Z,76.17
2023-09-24T02:13:20.922Z,76.68
2023-09-24T02:14:20.901Z,76.68
2023-09-24T02:15:20.885Z,76.27
2023-09-24T02:16:20.887Z,76.17
2023-09-24T02:17:20.855Z,76.58
2023-09-24T02:18:20.903Z,76.48
2023-09-24T02:19:20.822Z,76.48
2023-09-24T02:20:20.814Z,76.62
2023-09-24T02:21:20.788Z,76.92
2023-09-24T02:22:20.775Z,76.51
2023-09-24T02:23:20.768Z,76.72
2023-09-24T02:24:20.745Z,76.92
2023-09-24T02:25:20.729Z,76.72
2023-09-24T02:26:20.712Z,76.82
2023-09-24T02:27:20.699Z,76.20
2023-09-24T02:28:20.679Z,76.82
2023-09-24T02:29:20.661Z,76.72
2023-09-24T02:30:20.728Z,76.62
2023-09-24T02:31:20.766Z,77.03
2023-09-24T02:32:20.620Z,76.45
2023-09-24T02:33:20.657Z,76.31
2023-09-24T02:34:20.583Z,76.55
2023-09-24T02:35:20.587Z,76.34
2023-09-24T02:36:20.583Z,76.96
2023-09-24T02:37:20.542Z,76.55
2023-09-24T02:38:20.526Z,76.55
2023-09-24T02:39:20.605Z,76.86
2023-09-24T02:40:20.504Z,76.34
2023-09-24T02:41:20.480Z,76.89
2023-09-24T02:42:20.467Z,77.00
2023-09-24T02:43:20.449Z,76.58
2023-09-24T02:44:20.464Z,76.79
2023-09-24T02:45:20.422Z,76.75
2023-09-24T02:46:20.440Z,76.79
2023-09-24T02:47:20.393Z,76.96
2023-09-24T02:48:20.423Z,76.86
2023-09-24T02:49:20.357Z,76.68
2023-09-24T02:50:20.341Z,76.79
2023-09-24T02:51:20.326Z,76.89
2023-09-24T02:52:20.319Z,76.79
2023-09-24T02:53:20.296Z,77.10
2023-09-24T02:54:20.282Z,77.10
2023-09-24T02:55:20.266Z,76.89
2023-09-24T02:56:20.250Z,76.28
2023-09-24T02:57:20.234Z,76.89
2023-09-24T02:58:20.216Z,76.79
2023-09-24T02:59:20.213Z,76.93
2023-09-24T03:00:20.218Z,76.31
2023-09-24T03:01:20.212Z,76.79
2023-09-24T03:02:20.154Z,76.93
2023-09-24T03:03:20.228Z,76.93
2023-09-24T03:04:20.283Z,76.82
2023-09-24T03:05:20.108Z,76.93
2023-09-24T03:06:20.096Z,76.72
2023-09-24T03:07:20.080Z,76.82
2023-09-24T03:08:20.068Z,76.82
2023-09-24T03:09:20.052Z,76.82
2023-09-24T03:10:20.030Z,76.86
2023-09-24T03:11:20.030Z,76.86
2023-09-24T03:12:20.000Z,76.86
2023-09-24T03:13:19.984Z,76.65
2023-09-24T03:14:19.974Z,76.97
2023-09-24T03:15:19.987Z,77.06
2023-09-24T03:16:19.959Z,76.76
2023-09-24T03:17:19.932Z,76.65
2023-09-24T03:18:19.989Z,76.86
2023-09-24T03:19:19.910Z,76.97
2023-09-24T03:20:19.885Z,76.86
2023-09-24T03:21:19.862Z,76.97
2023-09-24T03:22:19.846Z,77.06
2023-09-24T03:23:19.838Z,76.35
2023-09-24T03:24:19.818Z,76.86
2023-09-24T03:25:19.796Z,76.86
2023-09-24T03:26:19.779Z,76.45
2023-09-24T03:27:19.768Z,76.65
2023-09-24T03:28:19.773Z,77.06
2023-09-24T03:29:19.734Z,76.76
2023-09-24T03:30:19.730Z,76.86
2023-09-24T03:31:19.741Z,76.55
2023-09-24T03:32:19.737Z,76.86
2023-09-24T03:33:19.751Z,76.76
2023-09-24T03:34:19.652Z,76.97
2023-09-24T03:35:19.643Z,76.86
2023-09-24T03:36:19.630Z,76.38
2023-09-24T03:37:19.611Z,77.00
2023-09-24T03:38:19.591Z,77.00
2023-09-24T03:39:19.731Z,77.00
2023-09-24T03:40:19.576Z,77.06
2023-09-24T03:41:19.600Z,76.79
2023-09-24T03:42:19.537Z,76.69
2023-09-24T03:43:19.528Z,76.69
2023-09-24T03:44:19.507Z,77.00
2023-09-24T03:45:19.484Z,77.31
2023-09-24T03:46:19.540Z,77.31
2023-09-24T03:47:19.450Z,77.62
2023-09-24T03:48:19.483Z,77.82
2023-09-24T03:49:19.418Z,78.20
2023-09-24T03:50:19.404Z,77.92
2023-09-24T03:51:19.387Z,77.99
2023-09-24T03:52:19.380Z,78.20
2023-09-24T03:53:19.359Z,77.78
2023-09-24T03:54:19.345Z,77.58
2023-09-24T03:55:19.322Z,77.62
2023-09-24T03:56:19.327Z,77.48
2023-09-24T03:57:19.296Z,77.27
2023-09-24T03:58:19.278Z,77.27
2023-09-24T03:59:19.260Z,77.31
2023-09-24T04:00:19.244Z,77.00
2023-09-24T04:01:19.284Z,77.10
2023-09-24T04:02:19.212Z,76.90
2023-09-24T04:03:19.253Z,76.90
2023-09-24T04:04:19.330Z,76.69
2023-09-24T04:05:19.188Z,76.90
2023-09-24T04:06:19.144Z,76.90
2023-09-24T04:07:19.134Z,76.93
2023-09-24T04:08:19.115Z,76.42
2023-09-24T04:09:19.107Z,76.52
2023-09-24T04:10:19.084Z,76.73
2023-09-24T04:11:19.065Z,76.93
2023-09-24T04:12:19.048Z,77.14
2023-09-24T04:13:19.045Z,77.14
2023-09-24T04:14:19.028Z,77.03
2023-09-24T04:15:19.007Z,77.24
2023-09-24T04:16:19.007Z,77.07
2023-09-24T04:17:18.969Z,76.97
2023-09-24T04:18:19.020Z,77.38
2023-09-24T04:19:18.934Z,77.48
2023-09-24T04:20:18.934Z,77.48
2023-09-24T04:21:18.911Z,77.79
2023-09-24T04:22:18.910Z,77.69
2023-09-24T04:23:18.873Z,77.58
2023-09-24T04:24:18.856Z,77.38
2023-09-24T04:25:18.846Z,77.28
2023-09-24T04:26:18.825Z,77.38
2023-09-24T04:27:18.808Z,77.48
2023-09-24T04:28:18.793Z,77.38
2023-09-24T04:29:18.796Z,77.38
2023-09-24T04:30:18.818Z,77.58
2023-09-24T04:31:18.750Z,77.69
2023-09-24T04:32:18.726Z,77.69
2023-09-24T04:33:18.769Z,77.58
2023-09-24T04:34:18.857Z,77.79
2023-09-24T04:35:18.681Z,77.58
2023-09-24T04:36:18.660Z,77.58
2023-09-24T04:37:18.706Z,77.58
2023-09-24T04:38:18.633Z,77.48
2023-09-24T04:39:18.611Z,77.07
2023-09-24T04:40:18.606Z,77.31
2023-09-24T04:41:18.588Z,77.28
2023-09-24T04:42:18.564Z,77.51
2023-09-24T04:43:18.548Z,77.51
2023-09-24T04:44:18.534Z,77.62
2023-09-24T04:45:18.521Z,77.72
2023-09-24T04:46:18.500Z,78.03
2023-09-24T04:47:18.493Z,77.93
2023-09-24T04:48:18.681Z,77.93
2023-09-24T04:49:18.606Z,77.72
2023-09-24T04:50:18.478Z,77.83
2023-09-24T04:51:18.418Z,77.42
2023-09-24T04:52:18.408Z,77.51
2023-09-24T04:53:18.388Z,77.11
2023-09-24T04:54:18.374Z,77.00
2023-09-24T04:55:18.538Z,77.00
2023-09-24T04:56:18.340Z,77.21
2023-09-24T04:57:18.317Z,77.11
2023-09-24T04:58:18.303Z,77.42
2023-09-24T04:59:18.302Z,77.42
2023-09-24T05:00:18.477Z,77.11
2023-09-24T05:01:18.261Z,77.00
2023-09-24T05:02:18.238Z,76.79
2023-09-24T05:03:18.478Z,76.79
2023-09-24T05:04:18.314Z,77.11
2023-09-24T05:05:18.324Z,77.14
2023-09-24T05:06:18.183Z,77.21
2023-09-24T05:07:18.160Z,77.25
2023-09-24T05:08:18.146Z,77.42
2023-09-24T05:09:18.131Z,77.04
2023-09-24T05:10:18.143Z,77.21
2023-09-24T05:11:18.100Z,77.51
2023-09-24T05:12:18.085Z,77.55
2023-09-24T05:13:18.064Z,77.31
2023-09-24T05:14:18.045Z,77.62
2023-09-24T05:15:18.055Z,77.62
2023-09-24T05:16:18.044Z,77.62
2023-09-24T05:17:18.070Z,77.62
2023-09-24T05:18:18.063Z,77.83
2023-09-24T05:19:17.967Z,77.62
2023-09-24T05:20:17.951Z,77.62
2023-09-24T05:21:17.938Z,77.62
2023-09-24T05:22:17.914Z,77.72
2023-09-24T05:23:17.921Z,77.62
2023-09-24T05:24:17.904Z,77.62
2023-09-24T05:25:17.865Z,77.31
2023-09-24T05:26:17.845Z,77.11
2023-09-24T05:27:17.829Z,76.90
2023-09-24T05:28:17.854Z,76.79
2023-09-24T05:29:17.801Z,77.21
2023-09-24T05:30:17.784Z,77.21
2023-09-24T05:31:17.822Z,77.21
2023-09-24T05:32:17.754Z,77.11
2023-09-24T05:33:17.826Z,77.62
2023-09-24T05:34:17.719Z,77.72
2023-09-24T05:35:17.713Z,78.00
2023-09-24T05:36:17.704Z,77.48
2023-09-24T05:37:17.672Z,77.58
2023-09-24T05:38:17.653Z,77.69
2023-09-24T05:39:17.644Z,77.38
2023-09-24T05:40:17.627Z,77.48
2023-09-24T05:41:17.606Z,77.28
2023-09-24T05:42:17.593Z,77.28
2023-09-24T05:43:17.572Z,77.38
2023-09-24T05:44:17.643Z,77.45
2023-09-24T05:45:17.545Z,77.45
2023-09-24T05:46:17.583Z,77.34
2023-09-24T05:47:17.514Z,77.55
2023-09-24T05:48:17.642Z,77.24
2023-09-24T05:49:17.472Z,77.24
2023-09-24T05:50:17.460Z,77.24
2023-09-24T05:51:17.468Z,77.31
2023-09-24T05:52:17.428Z,77.14
2023-09-24T05:53:17.415Z,77.51
2023-09-24T05:54:17.458Z,77.31
2023-09-24T05:55:17.420Z,77.31
2023-09-24T05:56:17.364Z,77.17
2023-09-24T05:57:17.418Z,77.10
2023-09-24T05:58:17.328Z,76.86
2023-09-24T05:59:17.310Z,76.76
2023-09-24T06:00:17.306Z,76.86
2023-09-24T06:01:17.313Z,76.97
2023-09-24T06:02:17.269Z,76.35
2023-09-24T06:03:17.402Z,77.13
2023-09-24T06:04:17.299Z,76.82
2023-09-24T06:05:17.237Z,76.93
2023-09-24T06:06:17.202Z,76.89
2023-09-24T06:07:17.192Z,77.40
2023-09-24T06:08:17.170Z,77.20
2023-09-24T06:09:17.615Z,77.06
2023-09-24T06:10:17.138Z,76.96
2023-09-24T06:11:17.129Z,76.75
2023-09-24T06:12:17.103Z,77.03
2023-09-24T06:13:17.470Z,76.82
2023-09-24T06:14:17.075Z,76.72
2023-09-24T06:15:17.099Z,76.62
2023-09-24T06:16:17.058Z,76.27
2023-09-24T06:17:17.026Z,76.82
2023-09-24T06:18:17.131Z,76.58
2023-09-24T06:19:16.995Z,76.27
2023-09-24T06:20:16.982Z,76.48
2023-09-24T06:21:16.962Z,76.34
2023-09-24T06:22:16.951Z,76.44
2023-09-24T06:23:16.938Z,76.34
2023-09-24T06:24:16.947Z,76.61
2023-09-24T06:25:16.907Z,76.61
2023-09-24T06:26:16.888Z,76.72
2023-09-24T06:27:16.865Z,76.61
2023-09-24T06:28:16.865Z,76.68
2023-09-24T06:29:16.846Z,76.47
2023-09-24T06:30:16.836Z,76.47
2023-09-24T06:31:16.864Z,76.57
2023-09-24T06:32:16.790Z,76.68
2023-09-24T06:33:16.827Z,76.43
2023-09-24T06:34:16.759Z,76.54
2023-09-24T06:35:16.848Z,76.50
2023-09-24T06:36:16.729Z,76.54
2023-09-24T06:37:16.719Z,76.61
2023-09-24T06:38:16.699Z,76.30
2023-09-24T06:39:16.748Z,76.20
2023-09-24T06:40:16.664Z,75.89
2023-09-24T06:41:16.648Z,75.99
2023-09-24T06:42:16.640Z,75.99
2023-09-24T06:43:16.619Z,76.26
2023-09-24T06:44:16.617Z,76.06
2023-09-24T06:45:16.780Z,76.57
2023-09-24T06:46:16.644Z,76.23
2023-09-24T06:47:16.564Z,75.92
2023-09-24T06:48:21.881Z,76.33
2023-09-24T06:49:16.530Z,76.53
2023-09-24T06:50:16.514Z,76.43
2023-09-24T06:51:16.499Z,76.29
2023-09-24T06:52:16.481Z,76.50
2023-09-24T06:53:16.474Z,76.40
2023-09-24T06:54:16.460Z,76.50
2023-09-24T06:55:16.460Z,76.50
2023-09-24T06:56:16.427Z,76.29
2023-09-24T06:57:16.411Z,76.16
2023-09-24T06:58:16.400Z,76.36
2023-09-24T06:59:16.397Z,76.26
2023-09-24T07:00:16.398Z,76.06
2023-09-24T07:01:16.384Z,76.26
2023-09-24T07:02:16.332Z,76.36
2023-09-24T07:03:16.371Z,76.22
2023-09-24T07:04:16.538Z,76.32
2023-09-24T07:05:17.277Z,76.22
2023-09-24T07:06:16.385Z,76.32
2023-09-24T07:07:16.260Z,76.19
2023-09-24T07:08:16.242Z,76.29
2023-09-24T07:09:16.241Z,76.19
2023-09-24T07:10:16.213Z,76.15
2023-09-24T07:11:16.204Z,76.25
2023-09-24T07:12:16.209Z,76.35
2023-09-24T07:13:16.168Z,76.32
2023-09-24T07:14:16.154Z,76.22
2023-09-24T07:15:16.169Z,76.08
2023-09-24T07:16:16.178Z,75.78
2023-09-24T07:17:16.129Z,75.98
2023-09-24T07:18:16.130Z,76.15
2023-09-24T07:19:16.082Z,76.15
2023-09-24T07:20:16.071Z,76.04
2023-09-24T07:21:27.156Z,76.01
2023-09-24T07:22:16.039Z,76.07
2023-09-24T07:23:16.025Z,75.67
2023-09-24T07:24:16.030Z,75.84
2023-09-24T07:25:16.021Z,75.94
2023-09-24T07:26:15.979Z,76.01
2023-09-24T07:27:15.999Z,75.67
2023-09-24T07:28:15.952Z,75.63
2023-09-24T07:29:15.937Z,75.52
2023-09-24T07:30:15.976Z,75.49
2023-09-24T07:31:15.917Z,75.15
2023-09-24T07:32:15.916Z,74.48
2023-09-24T07:33:15.956Z,74.84
2023-09-24T07:34:15.890Z,74.64
2023-09-24T07:35:15.853Z,74.57
2023-09-24T07:36:31.229Z,74.13
2023-09-24T07:37:15.843Z,74.03
2023-09-24T07:38:15.811Z,73.46
2023-09-24T07:39:15.942Z,73.46
2023-09-24T07:40:15.798Z,73.02
2023-09-24T07:41:15.776Z,72.68
2023-09-24T07:42:16.458Z,72.44
2023-09-24T07:43:15.858Z,72.20
2023-09-24T07:44:15.779Z,72.17
2023-09-24T07:45:15.761Z,72.04
2023-09-24T07:46:15.798Z,71.84
2023-09-24T07:47:15.721Z,71.97
2023-09-24T07:48:15.842Z,71.97
2023-09-24T07:49:15.680Z,71.60
2023-09-24T07:50:15.670Z,68.19
2023-09-24T07:51:15.660Z,60.08
2023-09-24T07:52:15.806Z,53.77
2023-09-24T07:53:15.640Z,50.49
2023-09-24T07:54:15.646Z,48.03
2023-09-24T07:55:15.624Z,47.02
2023-09-24T07:56:15.642Z,46.20
2023-09-24T07:57:15.653Z,44.43
2023-09-24T07:58:15.588Z,44.64
2023-09-24T07:59:15.592Z,43.96
2023-09-24T08:00:15.676Z,43.32
2023-09-24T08:01:15.659Z,41.81
2023-09-24T08:02:15.567Z,41.46
2023-09-24T08:03:15.601Z,41.71
2023-09-24T08:04:15.550Z,41.83
2023-09-24T08:05:15.628Z,41.70
2023-09-24T08:06:15.571Z,41.67
2023-09-24T08:07:15.554Z,41.44
2023-09-24T08:08:15.529Z,41.31
2023-09-24T08:09:26.803Z,41.46
2023-09-24T08:11:23.244Z,41.18
2023-09-24T08:12:22.930Z,40.01
2023-09-24T08:14:29.414Z,40.00
2023-09-24T08:15:29.755Z,39.98
2023-09-24T08:17:34.110Z,40.22
2023-09-24T08:18:33.972Z,38.87
2023-09-24T08:20:29.831Z,39.14
2023-09-24T08:21:27.869Z,39.51
2023-09-24T08:22:27.715Z,39.40
2023-09-24T08:23:27.829Z,39.86
2023-09-24T08:24:28.980Z,39.84
2023-09-24T08:25:29.566Z,39.62
2023-09-24T08:26:27.721Z,38.94
2023-09-24T08:27:27.543Z,38.82
2023-09-24T08:28:27.577Z,38.43
2023-09-24T08:29:27.550Z,37.65
2023-09-24T08:30:27.586Z,38.10
2023-09-24T08:31:27.605Z,36.83
2023-09-24T08:32:27.592Z,37.10
2023-09-24T08:33:27.637Z,37.54
2023-09-24T08:34:27.586Z,37.21
2023-09-24T08:35:27.577Z,36.63
2023-09-24T08:36:27.561Z,35.38
2023-09-24T08:37:27.762Z,35.01
2023-09-24T08:38:27.596Z,36.12
2023-09-24T08:39:27.637Z,36.48
2023-09-24T08:40:27.563Z,36.57
2023-09-24T08:41:27.561Z,36.27
2023-09-24T08:42:27.870Z,36.43
2023-09-24T08:43:27.619Z,36.69
2023-09-24T08:44:27.610Z,35.37
2023-09-24T08:45:27.565Z,36.67
2023-09-24T08:46:27.594Z,36.29
2023-09-24T08:47:27.896Z,36.65
2023-09-24T08:48:27.721Z,36.91
2023-09-24T08:49:27.594Z,36.71
2023-09-24T08:50:27.591Z,36.33
2023-09-24T08:51:27.605Z,35.75
2023-09-24T08:52:27.586Z,35.11
2023-09-24T08:53:27.618Z,35.96
2023-09-24T08:54:27.614Z,35.94
2023-09-24T08:55:27.766Z,36.60
2023-09-24T08:56:27.621Z,36.32
2023-09-24T08:57:27.678Z,36.20
2023-09-24T08:58:27.626Z,36.30
2023-09-24T08:59:27.611Z,36.65
2023-09-24T09:00:27.713Z,36.65
2023-09-24T09:01:27.654Z,36.91
2023-09-24T09:02:27.750Z,36.44
2023-09-24T09:03:27.668Z,36.46
2023-09-24T09:04:27.662Z,36.63
2023-09-24T09:05:27.980Z,36.37
2023-09-24T09:06:27.700Z,36.65
2023-09-24T09:07:27.631Z,36.93
2023-09-24T09:08:27.693Z,36.93
2023-09-24T09:09:27.770Z,37.19
2023-09-24T09:10:27.802Z,37.19
2023-09-24T09:11:27.692Z,37.38
2023-09-24T09:12:27.654Z,37.27
2023-09-24T09:13:27.658Z,38.11
2023-09-24T09:14:27.654Z,37.07
2023-09-24T09:15:27.658Z,37.91
2023-09-24T09:16:28.137Z,38.35
2023-09-24T09:17:27.727Z,38.07
2023-09-24T09:18:28.239Z,37.98
2023-09-24T09:19:27.770Z,38.17
2023-09-24T09:20:27.692Z,38.24
2023-09-24T09:21:27.846Z,38.35
2023-09-24T09:22:27.689Z,38.24
2023-09-24T09:23:27.695Z,38.17
2023-09-24T09:24:27.748Z,37.98
2023-09-24T09:25:27.713Z,37.16
2023-09-24T09:26:27.831Z,37.08
2023-09-24T09:27:27.717Z,38.30
2023-09-24T09:28:27.915Z,38.70
2023-09-24T09:29:28.598Z,38.32
2023-09-24T09:30:27.894Z,38.51
2023-09-24T09:31:28.499Z,38.51
2023-09-24T09:32:27.814Z,38.98
2023-09-24T09:33:27.936Z,38.34
2023-09-24T09:34:27.872Z,38.83
2023-09-24T09:35:27.774Z,38.38
2023-09-24T09:36:27.815Z,39.60
2023-09-24T09:37:27.765Z,39.22
2023-09-24T09:38:27.870Z,40.07
2023-09-24T09:39:27.981Z,39.97
2023-09-24T09:40:27.783Z,40.33
2023-09-24T09:41:28.089Z,40.61
2023-09-24T09:42:27.813Z,40.12
2023-09-24T09:43:27.790Z,40.99
2023-09-24T09:44:27.801Z,40.40
2023-09-24T09:45:27.801Z,40.05
2023-09-24T09:46:27.826Z,40.16
2023-09-24T09:47:27.847Z,40.25
2023-09-24T09:48:27.900Z,40.54
2023-09-24T09:49:27.814Z,40.91
2023-09-24T09:50:27.888Z,40.70
2023-09-24T09:51:27.886Z,41.27
2023-09-24T09:52:27.836Z,40.89
2023-09-24T09:53:27.857Z,41.64
2023-09-24T09:54:27.853Z,41.43
2023-09-24T09:55:27.852Z,40.89
2023-09-24T09:56:27.869Z,41.64
2023-09-24T09:57:27.860Z,42.02
2023-09-24T09:58:28.133Z,42.02
2023-09-24T09:59:27.869Z,42.30
2023-09-24T10:00:27.880Z,42.21
2023-09-24T10:01:27.950Z,42.21
2023-09-24T10:02:27.968Z,42.56
2023-09-24T10:03:28.040Z,42.09
2023-09-24T10:04:27.920Z,42.54
2023-09-24T10:05:27.970Z,43.01
2023-09-24T10:06:27.969Z,41.69
2023-09-24T10:07:27.972Z,42.54
2023-09-24T10:08:27.939Z,41.97
2023-09-24T10:09:28.076Z,42.16
2023-09-24T10:10:27.973Z,42.56
2023-09-24T10:11:27.956Z,42.82
2023-09-24T10:12:27.988Z,42.82
2023-09-24T10:13:27.978Z,42.53
2023-09-24T10:14:27.977Z,44.01
2023-09-24T10:15:28.058Z,44.07
2023-09-24T10:16:28.075Z,43.30
2023-09-24T10:17:28.506Z,43.09
2023-09-24T10:18:28.185Z,42.81
2023-09-24T10:19:27.994Z,43.26
2023-09-24T10:20:28.021Z,43.96
2023-09-24T10:21:28.009Z,43.74
2023-09-24T10:22:28.072Z,44.29
2023-09-24T10:23:28.024Z,44.40
2023-09-24T10:24:28.029Z,44.87
2023-09-24T10:25:28.032Z,45.22
2023-09-24T10:26:28.047Z,45.17
2023-09-24T10:27:28.461Z,44.84
2023-09-24T10:28:28.083Z,44.49
2023-09-24T10:29:29.033Z,44.66
2023-09-24T10:30:28.072Z,44.43
2023-09-24T10:31:28.184Z,44.40
2023-09-24T10:32:28.214Z,44.96
2023-09-24T10:33:28.192Z,44.45
2023-09-24T10:34:28.091Z,45.08
2023-09-24T10:35:28.239Z,45.76
2023-09-24T10:36:28.101Z,44.96
2023-09-24T10:37:28.115Z,44.61
2023-09-24T10:38:28.140Z,44.85
2023-09-24T10:39:28.118Z,44.53
2023-09-24T10:40:28.173Z,44.41
2023-09-24T10:41:28.130Z,43.07
2023-09-24T10:42:28.136Z,44.55
2023-09-24T10:43:28.138Z,44.43
2023-09-24T10:44:29.396Z,44.32
2023-09-24T10:45:28.150Z,43.76
2023-09-24T10:46:28.212Z,44.20
2023-09-24T10:47:28.354Z,43.90
2023-09-24T10:48:44.198Z,44.50
2023-09-24T10:49:28.285Z,44.94
2023-09-24T10:50:28.190Z,45.18
2023-09-24T10:51:28.326Z,45.43
2023-09-24T10:52:28.201Z,45.43
2023-09-24T10:53:28.239Z,46.83
2023-09-24T10:54:28.232Z,45.93
2023-09-24T10:55:28.304Z,46.07
2023-09-24T10:56:28.340Z,47.11
2023-09-24T10:57:28.334Z,48.08
2023-09-24T10:58:28.264Z,47.87
2023-09-24T10:59:28.235Z,47.49
2023-09-24T11:00:28.356Z,47.11
2023-09-24T11:01:28.352Z,46.54
2023-09-24T11:02:28.313Z,45.60
2023-09-24T11:03:28.383Z,45.43
2023-09-24T11:04:28.653Z,46.80
2023-09-24T11:05:28.338Z,47.28
2023-09-24T11:06:28.326Z,47.71
2023-09-24T11:07:28.274Z,49.00
2023-09-24T11:08:28.385Z,49.62
2023-09-24T11:09:28.299Z,49.65
2023-09-24T11:10:28.399Z,51.00
2023-09-24T11:11:28.294Z,51.03
2023-09-24T11:12:28.406Z,51.81
2023-09-24T11:13:28.582Z,52.56
2023-09-24T11:14:28.318Z,53.13
2023-09-24T11:15:28.313Z,53.38
2023-09-24T11:16:28.401Z,52.73
2023-09-24T11:17:28.324Z,51.17
2023-09-24T11:18:28.415Z,50.84
2023-09-24T11:19:28.332Z,51.78
2023-09-24T11:20:28.309Z,52.08
2023-09-24T11:21:28.354Z,53.20
2023-09-24T11:22:28.309Z,53.03
2023-09-24T11:23:28.322Z,52.71
2023-09-24T11:24:28.358Z,51.15
2023-09-24T11:25:28.333Z,50.20
2023-09-24T11:26:28.320Z,49.00
2023-09-24T11:27:28.310Z,47.94
2023-09-24T11:28:28.320Z,47.73
2023-09-24T11:29:28.312Z,47.18
2023-09-24T11:30:28.331Z,46.61
2023-09-24T11:31:28.370Z,46.28
2023-09-24T11:32:28.339Z,46.40
2023-09-24T11:33:28.470Z,45.21
2023-09-24T11:34:28.444Z,44.89
2023-09-24T11:35:28.326Z,44.86
2023-09-24T11:36:28.323Z,45.22
2023-09-24T11:37:29.596Z,44.79
2023-09-24T11:38:28.343Z,45.13
2023-09-24T11:39:28.333Z,44.92
2023-09-24T11:40:28.335Z,44.87
2023-09-24T11:41:28.340Z,45.04
2023-09-24T11:42:28.352Z,45.01
2023-09-24T11:43:28.530Z,44.89
2023-09-24T11:44:28.347Z,45.45
2023-09-24T11:45:28.350Z,44.79
2023-09-24T11:46:28.356Z,47.11
2023-09-24T11:47:28.395Z,46.37
2023-09-24T11:48:28.485Z,45.67
2023-09-24T11:49:28.609Z,45.17
2023-09-24T11:50:28.558Z,46.49
2023-09-24T11:51:28.444Z,46.75
2023-09-24T11:52:28.418Z,47.44
2023-09-24T11:53:28.739Z,47.73
2023-09-24T11:54:28.464Z,47.63
2023-09-24T11:55:28.383Z,47.75
2023-09-24T11:56:28.487Z,49.17
2023-09-24T11:57:28.408Z,49.19
2023-09-24T11:58:28.529Z,47.87
2023-09-24T11:59:28.404Z,47.53
2023-09-24T12:00:28.585Z,47.30
2023-09-24T12:01:28.898Z,48.42
2023-09-24T12:02:28.437Z,47.71
2023-09-24T12:03:28.511Z,47.89
2023-09-24T12:04:28.565Z,47.23
2023-09-24T12:05:33.608Z,47.06
2023-09-24T12:06:28.552Z,47.44
2023-09-24T12:07:28.496Z,47.75
2023-09-24T12:08:28.607Z,47.47
2023-09-24T12:09:28.534Z,47.47
2023-09-24T12:10:28.410Z,48.04
2023-09-24T12:11:28.415Z,47.47
2023-09-24T12:12:28.465Z,47.75
2023-09-24T12:13:28.461Z,47.68
2023-09-24T12:14:28.415Z,47.58
2023-09-24T12:15:28.468Z,47.94
2023-09-24T12:16:28.483Z,47.85
2023-09-24T12:17:28.494Z,48.13
2023-09-24T12:18:28.538Z,47.94
2023-09-24T12:19:28.422Z,47.94
2023-09-24T12:20:28.468Z,48.07
2023-09-24T12:21:28.465Z,49.09
2023-09-24T12:22:28.419Z,48.71
2023-09-24T12:23:28.431Z,49.09
2023-09-24T12:24:28.416Z,49.00
2023-09-24T12:25:28.443Z,49.19
2023-09-24T12:26:28.451Z,48.93
2023-09-24T12:27:28.489Z,48.21
2023-09-24T12:28:28.473Z,47.94
2023-09-24T12:29:28.497Z,48.28
2023-09-24T12:30:28.479Z,48.69
2023-09-24T12:31:28.500Z,49.19
2023-09-24T12:32:28.532Z,49.51
2023-09-24T12:33:28.599Z,49.33
2023-09-24T12:34:28.432Z,49.33
2023-09-24T12:35:28.440Z,48.97
2023-09-24T12:36:28.478Z,48.52
2023-09-24T12:37:28.448Z,47.60
2023-09-24T12:38:28.454Z,47.45
2023-09-24T12:39:28.505Z,47.81
2023-09-24T12:40:28.459Z,47.99
2023-09-24T12:41:28.742Z,48.85
2023-09-24T12:42:28.470Z,49.99
2023-09-24T12:43:28.489Z,50.04
2023-09-24T12:44:28.485Z,50.90
2023-09-24T12:45:28.451Z,50.29
2023-09-24T12:46:28.536Z,52.02
2023-09-24T12:47:28.477Z,51.88
2023-09-24T12:48:28.537Z,52.03
2023-09-24T12:49:28.461Z,52.67
2023-09-24T12:50:28.417Z,53.50
2023-09-24T12:51:28.439Z,53.13
2023-09-24T12:52:28.408Z,53.38
2023-09-24T12:53:28.404Z,53.23
2023-09-24T12:54:28.441Z,53.58
2023-09-24T12:55:28.432Z,54.43
2023-09-24T12:56:28.398Z,55.11